Time;durP1;ratioP1;P1;durP2;ratioP2;P2;SDS_P1;SDS_P2;PMS_P1;PMS_P2;Temp;Humidity;BMP_temperature;BMP_pressure;BME280_temperature;BME280_humidity;BME280_pressure;Samples;Min_cycle;Max_cycle;Signal;HPM_P1;HPM_P2
2020/12/16 00:00:51;;;;;;;5.10;4.70;;;11.00;59.10;;;;;;5066185;28;20208;-64
2020/12/16 00:03:17;;;;;;;5.27;4.87;;;11.00;59.20;;;;;;5067133;28;20289;-65
2020/12/16 00:05:45;;;;;;;5.13;4.73;;;10.90;59.20;;;;;;5066140;28;20209;-65
2020/12/16 00:08:12;;;;;;;4.93;4.53;;;10.90;59.30;;;;;;5066494;28;20205;-65
2020/12/16 00:10:39;;;;;;;5.37;4.90;;;10.90;59.50;;;;;;5062299;28;20242;-64
2020/12/16 00:13:10;;;;;;;5.40;4.90;;;10.90;59.50;;;;;;5066921;28;20228;-65
2020/12/16 00:15:37;;;;;;;5.67;5.03;;;10.90;59.60;;;;;;5066567;28;20686;-64
2020/12/16 00:18:04;;;;;;;5.00;4.60;;;10.90;59.70;;;;;;5065417;28;20204;-64
2020/12/16 00:20:31;;;;;;;4.83;4.43;;;10.90;59.70;;;;;;5066142;28;20204;-65
2020/12/16 00:22:57;;;;;;;5.70;5.20;;;10.80;59.70;;;;;;5061824;28;20205;-64
2020/12/16 00:25:24;;;;;;;5.43;4.93;;;10.90;59.80;;;;;;5067927;28;20209;-64
2020/12/16 00:27:50;;;;;;;4.70;4.30;;;10.90;59.80;;;;;;5064589;28;20228;-64
2020/12/16 00:30:16;;;;;;;5.37;4.87;;;10.90;59.80;;;;;;5061194;28;20208;-64
2020/12/16 00:32:44;;;;;;;5.40;5.00;;;10.90;59.80;;;;;;5061712;28;20208;-64
2020/12/16 00:35:11;;;;;;;5.50;5.00;;;10.90;59.80;;;;;;5066718;28;20233;-65
2020/12/16 00:37:39;;;;;;;4.73;4.33;;;10.90;59.90;;;;;;5064053;28;20217;-65
2020/12/16 00:40:09;;;;;;;5.40;4.90;;;10.90;59.90;;;;;;5065980;28;20212;-64
2020/12/16 00:42:36;;;;;;;4.87;4.47;;;10.90;59.90;;;;;;5065074;28;20201;-64
2020/12/16 00:45:04;;;;;;;4.50;4.10;;;10.90;59.90;;;;;;5065491;28;20236;-64
2020/12/16 00:47:33;;;;;;;4.47;4.13;;;10.90;59.90;;;;;;5065651;28;20233;-64
2020/12/16 00:50:01;;;;;;;5.63;5.13;;;10.90;59.90;;;;;;5065768;28;20213;-64
2020/12/16 00:52:28;;;;;;;6.73;6.13;;;11.00;59.90;;;;;;5066810;28;20212;-65
2020/12/16 00:54:54;;;;;;;6.77;6.17;;;10.90;59.80;;;;;;5064769;28;20239;-65
2020/12/16 00:57:21;;;;;;;7.53;6.87;;;11.00;59.80;;;;;;5063221;28;20201;-64
2020/12/16 00:59:47;;;;;;;8.30;7.53;;;10.90;59.70;;;;;;5063275;28;20658;-65
2020/12/16 01:02:14;;;;;;;7.20;6.60;;;11.00;59.70;;;;;;5061592;28;20371;-65
2020/12/16 01:04:41;;;;;;;7.23;6.63;;;10.90;59.60;;;;;;5062560;28;20236;-65
2020/12/16 01:07:08;;;;;;;6.97;6.37;;;10.90;59.50;;;;;;5054371;28;20232;-65
2020/12/16 01:09:35;;;;;;;6.87;6.27;;;10.90;59.60;;;;;;5065180;28;20213;-64
2020/12/16 01:12:02;;;;;;;6.93;6.33;;;10.90;59.60;;;;;;5061773;28;20239;-64
2020/12/16 01:14:28;;;;;;;6.43;5.83;;;10.90;59.60;;;;;;5065579;28;20237;-65
2020/12/16 01:16:55;;;;;;;6.43;5.87;;;10.80;59.60;;;;;;5061335;28;20215;-65
2020/12/16 01:19:21;;;;;;;6.10;5.57;;;10.80;59.60;;;;;;5065368;28;20748;-64
2020/12/16 01:21:48;;;;;;;6.17;5.67;;;10.80;59.60;;;;;;5062279;28;20204;-65
2020/12/16 01:24:15;;;;;;;6.50;5.90;;;10.80;59.60;;;;;;5064968;28;20752;-66
2020/12/16 01:26:46;;;;;;;5.43;5.03;;;10.80;59.60;;;;;;5063547;28;20615;-65
2020/12/16 01:29:13;;;;;;;5.80;5.30;;;10.80;59.60;;;;;;5064268;28;20213;-64
2020/12/16 01:31:41;;;;;;;5.40;4.90;;;10.70;59.50;;;;;;5062871;28;20212;-66
2020/12/16 01:34:07;;;;;;;5.93;5.43;;;10.70;59.50;;;;;;5062757;28;20721;-64
2020/12/16 01:36:38;;;;;;;5.80;5.40;;;10.70;59.60;;;;;;5060823;28;20204;-65
2020/12/16 01:39:05;;;;;;;6.40;5.90;;;10.60;59.50;;;;;;5062733;28;20208;-65
2020/12/16 01:41:32;;;;;;;5.37;4.97;;;10.60;59.50;;;;;;5062017;28;20212;-65
2020/12/16 01:44:11;;;;;;;5.73;5.23;;;10.50;59.40;;;;;;5063746;28;20740;-64
2020/12/16 01:46:37;;;;;;;5.77;5.27;;;10.50;59.50;;;;;;5063096;28;22961;-64
2020/12/16 01:49:04;;;;;;;5.50;5.10;;;10.50;59.30;;;;;;5063741;28;20208;-64
2020/12/16 01:51:33;;;;;;;5.33;4.83;;;10.40;59.30;;;;;;5062550;28;20209;-65
2020/12/16 01:54:01;;;;;;;5.20;4.80;;;10.40;59.30;;;;;;5063366;28;20240;-64
2020/12/16 01:56:30;;;;;;;5.50;5.00;;;10.30;59.30;;;;;;5064035;28;20614;-65
2020/12/16 01:58:59;;;;;;;5.33;4.83;;;10.20;59.40;;;;;;5064244;28;20212;-64
2020/12/16 02:01:28;;;;;;;5.33;4.83;;;10.10;59.40;;;;;;5062455;28;20212;-65
2020/12/16 02:03:56;;;;;;;5.53;5.03;;;10.10;59.50;;;;;;5063439;28;20770;-65
2020/12/16 02:06:24;;;;;;;5.33;4.93;;;10.00;59.50;;;;;;5062510;28;21019;-65
2020/12/16 02:09:03;;;;;;;5.43;5.00;;;10.00;59.60;;;;;;5062279;28;20215;-64
2020/12/16 02:11:32;;;;;;;5.50;5.10;;;9.90;59.70;;;;;;5063834;28;20697;-65
2020/12/16 02:14:01;;;;;;;5.23;4.83;;;9.90;59.60;;;;;;5064338;28;20710;-65
2020/12/16 02:16:29;;;;;;;5.50;5.10;;;9.80;59.70;;;;;;5064366;28;20204;-64
2020/12/16 02:18:55;;;;;;;5.47;4.90;;;9.70;59.70;;;;;;5062796;28;20296;-64
2020/12/16 02:21:22;;;;;;;4.90;4.50;;;9.70;59.70;;;;;;5063496;28;20741;-65
2020/12/16 02:23:51;;;;;;;5.20;4.80;;;9.60;60.50;;;;;;5060550;28;20229;-65
2020/12/16 02:26:19;;;;;;;5.40;4.90;;;9.60;59.90;;;;;;5064544;28;20688;-64
2020/12/16 02:28:45;;;;;;;5.27;4.87;;;9.50;59.90;;;;;;5063823;28;20254;-64
2020/12/16 02:31:12;;;;;;;5.27;4.83;;;9.50;60.00;;;;;;5062097;28;20216;-65
2020/12/16 02:33:39;;;;;;;4.77;4.43;;;9.40;60.10;;;;;;5063245;28;20566;-65
2020/12/16 02:36:05;;;;;;;4.97;4.57;;;9.40;60.20;;;;;;5064035;28;20205;-66
2020/12/16 02:38:32;;;;;;;5.93;5.43;;;9.30;60.30;;;;;;5062163;28;20213;-65
2020/12/16 02:40:58;;;;;;;5.40;5.00;;;9.30;60.30;;;;;;5064786;28;20213;-65
2020/12/16 02:43:26;;;;;;;5.30;4.90;;;9.30;60.40;;;;;;5064214;28;20255;-64
2020/12/16 02:45:52;;;;;;;5.70;5.20;;;9.30;60.50;;;;;;5063023;28;20224;-66
2020/12/16 02:48:18;;;;;;;5.20;4.70;;;9.20;60.40;;;;;;5066834;28;20979;-64
2020/12/16 02:50:45;;;;;;;5.37;4.87;;;9.20;60.50;;;;;;5067362;28;20216;-66
2020/12/16 02:53:11;;;;;;;5.83;5.33;;;9.20;60.60;;;;;;5066096;28;20741;-65
2020/12/16 02:55:38;;;;;;;5.50;5.10;;;9.20;60.60;;;;;;5068342;28;20255;-65
2020/12/16 02:58:04;;;;;;;5.77;5.33;;;9.10;60.60;;;;;;5066558;28;20205;-65
2020/12/16 03:00:31;;;;;;;5.53;5.13;;;9.10;60.50;;;;;;5066105;28;20220;-66
2020/12/16 03:02:58;;;;;;;5.43;4.93;;;9.10;60.60;;;;;;5066313;28;20214;-66
2020/12/16 03:05:24;;;;;;;5.77;5.30;;;9.10;60.60;;;;;;5067924;28;20725;-65
2020/12/16 03:07:50;;;;;;;5.70;5.20;;;9.10;60.70;;;;;;5065340;28;20653;-66
2020/12/16 03:10:17;;;;;;;5.43;5.03;;;9.10;60.70;;;;;;5066559;28;20217;-66
2020/12/16 03:12:43;;;;;;;5.30;4.90;;;9.10;60.80;;;;;;5066232;28;20209;-66
2020/12/16 03:15:09;;;;;;;6.10;5.50;;;9.00;60.80;;;;;;5066957;28;20767;-65
2020/12/16 03:17:37;;;;;;;5.80;5.33;;;9.00;60.80;;;;;;5067961;28;20205;-66
2020/12/16 03:20:04;;;;;;;6.23;5.70;;;9.00;60.80;;;;;;5065600;28;20212;-64
2020/12/16 03:22:30;;;;;;;6.43;5.83;;;9.00;60.90;;;;;;5066365;28;20682;-64
2020/12/16 03:24:57;;;;;;;6.50;5.77;;;8.90;60.80;;;;;;5066615;28;20315;-63
2020/12/16 03:27:23;;;;;;;7.10;6.50;;;8.90;60.80;;;;;;5066018;28;20225;-64
2020/12/16 03:29:50;;;;;;;7.90;7.23;;;8.90;60.70;;;;;;5067303;28;20263;-64
2020/12/16 03:32:16;;;;;;;8.23;7.53;;;8.80;60.60;;;;;;5064275;28;20209;-65
2020/12/16 03:34:43;;;;;;;8.60;7.80;;;8.80;60.50;;;;;;5068085;28;20786;-65
2020/12/16 03:37:10;;;;;;;8.37;7.50;;;8.80;60.60;;;;;;5066127;28;20217;-65
2020/12/16 03:39:36;;;;;;;8.40;7.70;;;8.70;60.50;;;;;;5066940;28;20210;-65
2020/12/16 03:42:02;;;;;;;9.13;8.30;;;8.70;60.70;;;;;;5064935;28;20212;-64
2020/12/16 03:44:29;;;;;;;9.30;8.40;;;8.60;60.70;;;;;;5066236;28;20713;-65
2020/12/16 03:46:56;;;;;;;9.03;8.23;;;8.60;60.70;;;;;;5065660;28;20229;-65
2020/12/16 03:49:22;;;;;;;9.77;8.87;;;8.60;60.80;;;;;;5067031;28;20226;-64
2020/12/16 03:51:53;;;;;;;9.70;8.80;;;8.50;60.90;;;;;;5063887;28;20255;-65
2020/12/16 03:54:19;;;;;;;9.27;8.43;;;8.50;61.00;;;;;;5066634;28;20285;-65
2020/12/16 03:56:48;;;;;;;9.53;8.63;;;8.50;61.00;;;;;;5064363;28;20213;-64
2020/12/16 03:59:14;;;;;;;9.33;8.47;;;8.50;61.10;;;;;;5066387;28;20678;-65
2020/12/16 04:01:41;;;;;;;9.73;8.80;;;8.40;61.00;;;;;;5064549;28;20903;-64
2020/12/16 04:04:08;;;;;;;9.63;8.80;;;8.40;61.10;;;;;;5065158;28;20323;-65
2020/12/16 04:06:35;;;;;;;8.83;8.03;;;8.40;61.20;;;;;;5067451;28;20789;-64
2020/12/16 04:09:04;;;;;;;9.40;8.57;;;8.40;61.20;;;;;;5065328;28;20678;-64
2020/12/16 04:11:31;;;;;;;8.93;8.13;;;8.30;61.40;;;;;;5065195;28;20205;-65
2020/12/16 04:13:57;;;;;;;9.20;8.23;;;8.30;61.40;;;;;;5067443;28;20233;-64
2020/12/16 04:16:24;;;;;;;8.23;7.47;;;8.30;61.50;;;;;;5066561;28;20213;-64
2020/12/16 04:18:51;;;;;;;7.97;7.30;;;8.30;61.60;;;;;;5064751;28;20209;-64
2020/12/16 04:21:21;;;;;;;8.57;7.87;;;8.30;61.60;;;;;;5065398;28;20216;-64
2020/12/16 04:23:47;;;;;;;8.80;8.00;;;8.30;61.60;;;;;;5063527;28;20251;-64
2020/12/16 04:26:15;;;;;;;9.40;8.53;;;8.30;61.60;;;;;;5065586;28;20213;-64
2020/12/16 04:28:41;;;;;;;9.00;8.20;;;8.30;61.60;;;;;;5063235;28;20201;-63
2020/12/16 04:31:11;;;;;;;8.17;7.47;;;8.30;61.50;;;;;;5065173;28;20200;-63
2020/12/16 04:33:38;;;;;;;8.37;7.67;;;8.40;61.60;;;;;;5065034;28;20339;-64
2020/12/16 04:36:04;;;;;;;9.17;7.67;;;8.30;61.70;;;;;;5066854;28;20208;-64
2020/12/16 04:38:31;;;;;;;9.20;8.40;;;8.40;61.80;;;;;;5062632;28;20262;-64
2020/12/16 04:40:57;;;;;;;8.07;7.37;;;8.40;61.80;;;;;;5065865;28;20266;-64
2020/12/16 04:43:25;;;;;;;9.03;8.23;;;8.40;61.90;;;;;;5065716;28;20221;-65
2020/12/16 04:45:52;;;;;;;8.63;7.83;;;8.40;61.90;;;;;;5065979;28;20223;-64
2020/12/16 04:48:19;;;;;;;7.80;7.10;;;8.40;61.80;;;;;;5065746;28;20225;-64
2020/12/16 04:50:47;;;;;;;8.93;8.17;;;8.40;61.70;;;;;;5063054;28;20205;-64
2020/12/16 04:53:18;;;;;;;8.33;7.63;;;8.50;61.70;;;;;;5062110;28;20208;-64
2020/12/16 04:55:47;;;;;;;8.20;7.40;;;8.50;61.70;;;;;;5065480;28;20619;-65
2020/12/16 04:58:14;;;;;;;8.47;7.77;;;8.50;61.60;;;;;;5063551;28;20205;-64
2020/12/16 05:00:41;;;;;;;8.10;7.40;;;8.50;61.40;;;;;;5060936;28;20212;-64
2020/12/16 05:03:10;;;;;;;7.80;7.10;;;8.60;61.40;;;;;;5064612;28;20209;-64
2020/12/16 05:05:37;;;;;;;8.03;7.23;;;8.50;61.20;;;;;;5064359;28;20212;-64
2020/12/16 05:08:11;;;;;;;7.13;6.53;;;8.50;61.20;;;;;;5061685;28;20663;-64
2020/12/16 05:10:40;;;;;;;7.30;6.70;;;8.50;61.30;;;;;;5062130;28;20207;-63
2020/12/16 05:13:10;;;;;;;7.87;7.17;;;8.50;61.20;;;;;;5064188;28;20209;-64
2020/12/16 05:15:39;;;;;;;7.90;7.20;;;8.50;61.20;;;;;;5066620;28;20208;-64
2020/12/16 05:18:12;;;;;;;7.77;6.97;;;8.50;61.20;;;;;;5065861;28;20538;-66
2020/12/16 05:20:43;;;;;;;7.20;6.60;;;8.50;61.30;;;;;;5066865;28;20201;-65
2020/12/16 05:23:11;;;;;;;8.67;7.87;;;8.50;61.30;;;;;;5061888;28;20213;-65
2020/12/16 05:25:38;;;;;;;8.10;7.40;;;8.50;61.30;;;;;;5065952;28;20559;-64
2020/12/16 05:28:06;;;;;;;7.30;6.67;;;8.50;61.40;;;;;;5063028;28;20236;-63
2020/12/16 05:30:35;;;;;;;7.13;6.53;;;8.40;61.30;;;;;;5064084;28;20209;-63
2020/12/16 05:33:04;;;;;;;6.97;6.37;;;8.40;61.30;;;;;;5064623;28;20213;-64
2020/12/16 05:35:35;;;;;;;6.50;5.90;;;8.40;61.40;;;;;;5065018;28;20225;-64
2020/12/16 05:38:06;;;;;;;6.47;5.97;;;8.50;61.50;;;;;;5065949;28;20292;-64
2020/12/16 05:40:35;;;;;;;7.17;6.50;;;8.50;61.50;;;;;;5064060;28;20216;-64
2020/12/16 05:43:03;;;;;;;6.87;6.37;;;8.50;61.50;;;;;;5064507;28;20672;-64
2020/12/16 05:45:31;;;;;;;6.87;6.27;;;8.50;61.50;;;;;;5064213;28;20205;-65
2020/12/16 05:48:02;;;;;;;6.70;6.00;;;8.50;61.60;;;;;;5063862;28;20235;-65
2020/12/16 05:50:37;;;;;;;5.87;5.37;;;8.50;61.50;;;;;;5062977;28;20295;-64
2020/12/16 05:53:17;;;;;;;6.13;5.63;;;8.50;61.50;;;;;;5063942;28;20200;-63
2020/12/16 05:55:49;;;;;;;6.50;5.90;;;8.50;61.40;;;;;;5064266;28;20212;-64
2020/12/16 05:58:20;;;;;;;6.77;6.10;;;8.60;61.30;;;;;;5064906;28;20249;-64
2020/12/16 06:00:51;;;;;;;6.60;6.00;;;8.60;61.20;;;;;;5060126;28;20205;-64
2020/12/16 06:03:27;;;;;;;6.77;6.17;;;8.60;61.30;;;;;;5063002;28;20205;-63
2020/12/16 06:05:58;;;;;;;6.80;6.00;;;8.60;61.30;;;;;;5064049;28;20693;-65
2020/12/16 06:08:28;;;;;;;6.23;5.73;;;8.60;61.20;;;;;;5063913;28;20339;-64
2020/12/16 06:10:55;;;;;;;6.83;6.23;;;8.60;61.20;;;;;;5063718;28;20197;-64
2020/12/16 06:13:24;;;;;;;6.70;6.10;;;8.60;61.20;;;;;;5062904;28;20252;-65
2020/12/16 06:15:58;;;;;;;5.93;5.43;;;8.50;61.10;;;;;;5063516;28;20244;-66
2020/12/16 06:18:28;;;;;;;6.00;5.50;;;8.50;61.10;;;;;;5063886;28;20209;-65
2020/12/16 06:20:56;;;;;;;6.00;5.50;;;8.60;61.00;;;;;;5062029;28;20716;-64
2020/12/16 06:23:34;;;;;;;6.53;6.03;;;8.50;60.80;;;;;;5066777;28;20236;-65
2020/12/16 06:26:03;;;;;;;6.70;6.10;;;8.50;61.40;;;;;;5066698;28;20319;-65
2020/12/16 06:28:30;;;;;;;6.37;5.87;;;8.50;60.70;;;;;;5065767;28;20594;-64
2020/12/16 06:31:09;;;;;;;6.13;5.63;;;8.50;60.80;;;;;;5066630;28;20216;-65
2020/12/16 06:33:41;;;;;;;5.77;5.27;;;8.40;60.90;;;;;;5068418;28;20266;-66
2020/12/16 06:36:11;;;;;;;6.10;5.60;;;8.40;61.00;;;;;;5067960;28;20205;-64
2020/12/16 06:38:43;;;;;;;5.97;5.47;;;8.40;61.10;;;;;;5067339;28;20197;-63
2020/12/16 06:41:20;;;;;;;6.13;5.53;;;8.40;61.20;;;;;;5065706;28;20206;-64
2020/12/16 06:43:48;;;;;;;6.00;5.50;;;8.40;61.40;;;;;;5067187;28;20233;-64
2020/12/16 06:46:52;;;;;;;6.13;5.63;;;8.40;61.30;;;;;;5067230;28;20212;-64
2020/12/16 06:49:34;;;;;;;6.83;6.30;;;8.40;61.50;;;;;;5066931;28;20200;-64
2020/12/16 06:52:05;;;;;;;6.23;5.73;;;8.40;61.30;;;;;;5066173;28;20274;-64
2020/12/16 06:54:44;;;;;;;6.27;5.77;;;8.50;61.20;;;;;;5064486;28;20275;-64
2020/12/16 06:57:17;;;;;;;6.37;5.87;;;8.50;61.40;;;;;;5065189;28;20197;-64
2020/12/16 06:59:51;;;;;;;6.40;5.83;;;8.50;61.40;;;;;;5065897;28;20231;-63
2020/12/16 07:02:30;;;;;;;6.53;6.03;;;8.50;61.30;;;;;;5065109;28;20217;-63
2020/12/16 07:04:59;;;;;;;6.80;6.20;;;8.50;61.40;;;;;;5063369;28;20611;-64
2020/12/16 07:07:54;;;;;;;6.80;6.20;;;8.50;61.30;;;;;;5065321;28;20217;-64
2020/12/16 07:10:46;;;;;;;6.83;6.23;;;8.50;61.60;;;;;;5060793;28;20467;-64
2020/12/16 07:13:27;;;;;;;6.33;5.83;;;8.50;61.50;;;;;;5064622;28;20216;-63
2020/12/16 07:15:59;;;;;;;7.40;6.13;;;8.50;61.40;;;;;;5065113;28;20292;-64
2020/12/16 07:18:46;;;;;;;7.30;6.70;;;8.50;61.40;;;;;;5067902;28;20205;-63
2020/12/16 07:21:29;;;;;;;6.10;5.60;;;8.50;61.30;;;;;;5065269;28;20305;-65
2020/12/16 07:24:17;;;;;;;5.90;5.40;;;8.60;61.40;;;;;;5064542;28;20232;-63
2020/12/16 07:26:47;;;;;;;6.40;5.90;;;8.60;61.50;;;;;;5056642;28;20614;-65
2020/12/16 07:29:37;;;;;;;6.07;5.57;;;8.60;61.30;;;;;;5064555;28;20209;-64
2020/12/16 07:32:07;;;;;;;5.67;5.10;;;8.60;61.20;;;;;;5043947;28;20212;-64
2020/12/16 07:34:44;;;;;;;5.60;5.10;;;8.60;60.90;;;;;;5061528;28;20230;-64
2020/12/16 07:37:11;;;;;;;5.60;5.10;;;8.60;60.90;;;;;;5065459;28;20215;-62
2020/12/16 07:39:48;;;;;;;5.83;5.33;;;8.50;60.80;;;;;;5068443;28;20201;-64
2020/12/16 07:42:24;;;;;;;5.80;5.30;;;8.50;61.00;;;;;;5065682;28;20583;-65
2020/12/16 07:44:51;;;;;;;6.13;5.63;;;8.50;61.00;;;;;;5065643;28;20229;-65
2020/12/16 07:47:18;;;;;;;5.37;4.97;;;8.50;61.00;;;;;;5066332;28;20315;-64
2020/12/16 07:49:45;;;;;;;6.00;5.50;;;8.50;61.10;;;;;;5067287;28;20213;-64
2020/12/16 07:52:12;;;;;;;6.03;5.53;;;8.50;61.00;;;;;;5066209;28;20216;-65
2020/12/16 07:54:39;;;;;;;5.97;5.47;;;8.50;61.10;;;;;;5068504;28;20232;-64
2020/12/16 07:57:07;;;;;;;6.27;5.67;;;8.50;61.20;;;;;;5068569;28;20265;-64
2020/12/16 07:59:36;;;;;;;5.97;5.47;;;8.50;61.20;;;;;;5066357;28;20211;-64
2020/12/16 08:02:12;;;;;;;6.03;5.43;;;8.60;61.40;;;;;;5062445;28;20210;-63
2020/12/16 08:04:41;;;;;;;6.67;5.70;;;8.60;61.60;;;;;;5065393;28;20314;-65
2020/12/16 08:07:16;;;;;;;6.50;5.90;;;8.60;61.60;;;;;;5064305;28;20221;-66
2020/12/16 08:09:53;;;;;;;6.17;5.57;;;8.60;61.60;;;;;;5068282;28;20257;-63
2020/12/16 08:12:21;;;;;;;6.37;5.77;;;8.70;61.80;;;;;;5064529;28;20208;-64
2020/12/16 08:14:48;;;;;;;6.77;6.17;;;8.70;61.70;;;;;;5065660;28;20239;-64
2020/12/16 08:17:15;;;;;;;6.93;6.27;;;8.80;61.80;;;;;;5064801;28;20259;-64
2020/12/16 08:19:41;;;;;;;6.27;5.73;;;8.80;61.80;;;;;;5064236;28;20209;-64
2020/12/16 08:22:16;;;;;;;6.73;6.13;;;8.90;61.70;;;;;;5065008;28;20232;-64
2020/12/16 08:24:59;;;;;;;6.87;6.27;;;9.00;62.50;;;;;;5065026;28;21110;-63
2020/12/16 08:27:28;;;;;;;7.10;6.40;;;9.00;61.70;;;;;;5065541;28;20256;-64
2020/12/16 08:29:55;;;;;;;7.03;6.27;;;9.10;61.80;;;;;;5066529;28;20208;-64
2020/12/16 08:32:26;;;;;;;7.73;7.03;;;9.20;61.90;;;;;;5062713;28;20205;-63
2020/12/16 08:34:58;;;;;;;7.53;6.93;;;9.40;62.10;;;;;;5066167;28;20236;-65
2020/12/16 08:37:24;;;;;;;7.63;7.03;;;9.50;62.10;;;;;;5064813;28;20197;-63
2020/12/16 08:39:51;;;;;;;7.87;7.17;;;9.70;62.00;;;;;;5066380;28;20299;-65
2020/12/16 08:42:26;;;;;;;7.90;7.20;;;9.90;62.00;;;;;;5064013;28;20214;-64
2020/12/16 08:45:05;;;;;;;7.60;6.93;;;10.10;61.50;;;;;;5066629;28;20859;-64
2020/12/16 08:47:32;;;;;;;7.80;7.20;;;10.30;61.50;;;;;;5062649;28;20229;-64
2020/12/16 08:49:58;;;;;;;8.33;7.53;;;10.50;61.50;;;;;;5066999;28;20254;-65
2020/12/16 08:52:25;;;;;;;7.67;7.07;;;10.70;61.40;;;;;;5063013;28;20899;-66
2020/12/16 08:54:51;;;;;;;7.47;6.87;;;11.00;61.30;;;;;;5066626;28;20316;-64
2020/12/16 08:57:19;;;;;;;7.83;7.13;;;11.20;61.00;;;;;;5066595;28;20205;-66
2020/12/16 08:59:47;;;;;;;7.93;7.23;;;11.50;60.70;;;;;;5066978;28;20242;-66
2020/12/16 09:02:15;;;;;;;7.23;6.63;;;11.80;60.40;;;;;;5063251;28;20205;-65
2020/12/16 09:04:43;;;;;;;8.10;7.20;;;12.00;59.90;;;;;;5065908;28;20213;-65
2020/12/16 09:07:12;;;;;;;6.83;6.23;;;12.30;59.50;;;;;;5065870;28;20228;-66
2020/12/16 09:09:41;;;;;;;7.03;6.47;;;12.50;59.20;;;;;;5066622;28;20209;-65
2020/12/16 09:12:12;;;;;;;6.90;6.30;;;12.60;58.80;;;;;;5066012;28;20211;-65
2020/12/16 09:14:47;;;;;;;6.80;6.30;;;12.80;58.60;;;;;;5062696;28;20253;-65
2020/12/16 09:17:15;;;;;;;7.20;6.50;;;13.00;58.50;;;;;;5061593;28;20212;-65
2020/12/16 09:19:44;;;;;;;7.00;6.37;;;13.10;58.10;;;;;;5065428;28;20255;-65
2020/12/16 09:22:11;;;;;;;7.07;6.57;;;13.30;57.90;;;;;;5063383;28;20224;-66
2020/12/16 09:24:37;;;;;;;7.20;6.60;;;13.40;57.70;;;;;;5064580;28;20285;-65
2020/12/16 09:27:09;;;;;;;6.87;6.17;;;13.50;57.50;;;;;;5062906;28;20228;-67
2020/12/16 09:29:44;;;;;;;6.83;6.17;;;13.70;57.60;;;;;;5063410;28;20224;-65
2020/12/16 09:32:13;;;;;;;6.67;6.17;;;14.00;58.10;;;;;;5063921;28;20204;-65
2020/12/16 09:34:43;;;;;;;6.90;6.20;;;14.50;58.70;;;;;;5063175;28;20240;-65
2020/12/16 09:37:33;;;;;;;7.33;5.80;;;15.00;58.20;;;;;;5062667;28;20625;-66
2020/12/16 09:40:06;;;;;;;8.17;5.20;;;15.60;56.80;;;;;;5053341;28;20227;-65
2020/12/16 09:42:33;;;;;;;5.60;5.00;;;16.10;57.30;;;;;;5061110;28;20259;-65
2020/12/16 09:45:09;;;;;;;7.13;4.43;;;16.70;57.30;;;;;;5063666;28;20233;-66
2020/12/16 09:47:42;;;;;;;5.67;4.57;;;17.20;56.00;;;;;;5059357;28;20239;-66
2020/12/16 09:50:10;;;;;;;4.87;4.37;;;17.60;55.40;;;;;;5062552;28;20240;-65
2020/12/16 09:52:39;;;;;;;5.30;4.47;;;17.90;55.20;;;;;;5058906;28;20258;-65
2020/12/16 09:55:18;;;;;;;5.00;4.50;;;18.20;54.60;;;;;;5063778;28;21216;-65
2020/12/16 09:57:46;;;;;;;5.93;4.80;;;18.40;53.10;;;;;;5058652;28;20603;-64
2020/12/16 10:00:12;;;;;;;5.40;4.37;;;18.50;53.40;;;;;;5064014;28;20247;-65
2020/12/16 10:02:39;;;;;;;7.23;5.23;;;18.50;52.90;;;;;;5064516;28;20282;-65
2020/12/16 10:05:06;;;;;;;4.90;4.40;;;18.40;52.60;;;;;;5065925;28;20787;-65
2020/12/16 10:07:34;;;;;;;5.83;4.53;;;18.30;52.50;;;;;;5065766;28;20229;-65
2020/12/16 10:10:01;;;;;;;7.40;4.67;;;18.10;52.10;;;;;;5062800;28;20209;-65
2020/12/16 10:12:28;;;;;;;6.23;5.10;;;18.00;52.10;;;;;;5061895;28;20216;-66
2020/12/16 10:14:54;;;;;;;5.90;5.33;;;17.80;52.10;;;;;;5062946;28;20235;-65
2020/12/16 10:17:24;;;;;;;6.53;4.90;;;17.70;52.30;;;;;;5062145;28;20205;-65
2020/12/16 10:19:51;;;;;;;5.17;4.67;;;17.50;52.30;;;;;;5062905;28;20257;-64
2020/12/16 10:22:18;;;;;;;6.00;5.00;;;17.40;52.50;;;;;;5062639;28;20209;-63
2020/12/16 10:24:46;;;;;;;5.80;5.13;;;17.20;52.50;;;;;;5064489;28;20225;-66
2020/12/16 10:27:13;;;;;;;6.63;5.60;;;17.00;52.00;;;;;;5059135;28;20225;-65
2020/12/16 10:29:39;;;;;;;6.13;5.50;;;16.90;52.10;;;;;;5063796;28;20212;-64
2020/12/16 10:32:06;;;;;;;7.07;4.93;;;16.70;52.20;;;;;;5062613;28;20296;-65
2020/12/16 10:34:32;;;;;;;7.37;5.50;;;16.50;52.20;;;;;;5064132;28;20232;-64
2020/12/16 10:36:59;;;;;;;6.30;5.70;;;16.30;52.30;;;;;;5064829;28;20216;-65
2020/12/16 10:39:26;;;;;;;5.97;5.37;;;16.10;52.40;;;;;;5062656;28;20201;-64
2020/12/16 10:41:57;;;;;;;7.67;5.60;;;16.00;52.40;;;;;;5060823;28;20206;-64
2020/12/16 10:44:24;;;;;;;7.10;6.10;;;15.80;52.60;;;;;;5063332;28;20240;-65
2020/12/16 10:46:54;;;;;;;8.07;5.90;;;15.60;52.80;;;;;;5060919;28;20247;-66
2020/12/16 10:49:22;;;;;;;5.87;5.27;;;15.50;52.80;;;;;;5062768;28;20406;-66
2020/12/16 10:51:49;;;;;;;6.67;5.73;;;15.40;53.00;;;;;;5062039;28;20274;-65
2020/12/16 10:54:15;;;;;;;6.43;5.47;;;15.20;53.20;;;;;;5063352;28;20237;-66
2020/12/16 10:56:43;;;;;;;6.77;6.07;;;15.10;53.10;;;;;;5062239;28;20217;-65
2020/12/16 10:59:10;;;;;;;6.57;5.97;;;14.90;53.10;;;;;;5061379;28;20200;-65
2020/12/16 11:01:38;;;;;;;6.70;6.20;;;14.80;53.30;;;;;;5060382;28;20210;-65
2020/12/16 11:04:07;;;;;;;6.97;6.37;;;14.70;53.30;;;;;;5059524;28;20765;-65
2020/12/16 11:06:35;;;;;;;7.67;6.87;;;14.60;53.50;;;;;;5060187;28;20206;-65
2020/12/16 11:09:02;;;;;;;7.53;6.93;;;14.50;53.50;;;;;;5066443;28;20244;-64
2020/12/16 11:11:28;;;;;;;7.80;7.00;;;14.40;53.60;;;;;;5065629;28;20323;-64
2020/12/16 11:13:55;;;;;;;7.17;6.57;;;14.30;53.60;;;;;;5064097;28;20256;-66
2020/12/16 11:16:29;;;;;;;7.50;6.90;;;14.30;53.80;;;;;;5068027;28;20213;-65
2020/12/16 11:18:56;;;;;;;7.60;6.97;;;14.20;53.60;;;;;;5067558;28;20259;-65
2020/12/16 11:21:23;;;;;;;7.93;7.23;;;14.10;53.90;;;;;;5066344;28;20212;-65
2020/12/16 11:23:49;;;;;;;8.13;7.43;;;14.10;53.90;;;;;;5066811;28;20256;-66
2020/12/16 11:26:15;;;;;;;7.63;6.93;;;14.00;53.90;;;;;;5065365;28;20205;-65
2020/12/16 11:28:42;;;;;;;8.50;7.63;;;14.00;54.00;;;;;;5065515;28;20225;-66
2020/12/16 11:31:08;;;;;;;7.63;6.93;;;14.00;54.10;;;;;;5065210;28;20549;-66
2020/12/16 11:33:35;;;;;;;7.90;7.10;;;13.90;54.20;;;;;;5065410;28;20232;-64
2020/12/16 11:36:02;;;;;;;8.40;7.60;;;13.90;54.30;;;;;;5065695;28;20202;-65
2020/12/16 11:38:28;;;;;;;7.83;7.17;;;13.90;54.40;;;;;;5065635;28;20277;-66
2020/12/16 11:40:55;;;;;;;8.00;7.30;;;13.90;54.40;;;;;;5065485;28;20572;-65
2020/12/16 11:44:05;;;;;;;8.43;7.70;;;13.90;54.40;;;;;;5066507;28;20220;-69
2020/12/16 11:46:32;;;;;;;8.27;7.57;;;13.90;54.20;;;;;;5051956;28;20287;-67
2020/12/16 11:49:00;;;;;;;9.67;8.17;;;13.90;54.30;;;;;;5061375;28;20217;-65
2020/12/16 11:51:28;;;;;;;9.23;8.33;;;13.90;54.20;;;;;;5064304;28;20658;-64
2020/12/16 11:53:55;;;;;;;9.80;8.90;;;13.80;54.20;;;;;;5062626;28;20287;-66
2020/12/16 11:56:21;;;;;;;8.80;7.90;;;13.80;54.30;;;;;;5062238;28;20220;-65
2020/12/16 11:58:48;;;;;;;8.73;7.93;;;13.80;54.40;;;;;;5065285;28;20216;-65
2020/12/16 12:01:16;;;;;;;8.07;7.37;;;13.80;54.40;;;;;;5065052;28;20209;-64
2020/12/16 12:03:43;;;;;;;9.50;8.60;;;13.80;54.30;;;;;;5064802;28;20241;-64
2020/12/16 12:06:09;;;;;;;7.93;7.23;;;13.70;54.30;;;;;;5064952;28;20202;-64
2020/12/16 12:08:37;;;;;;;9.20;8.40;;;13.70;54.40;;;;;;5086847;22;20314;-66
2020/12/16 12:11:05;;;;;;;8.17;7.50;;;13.70;54.40;;;;;;5075745;28;20291;-66
2020/12/16 12:13:32;;;;;;;8.93;8.13;;;13.70;54.50;;;;;;5079566;28;20219;-67
2020/12/16 12:15:59;;;;;;;8.40;7.60;;;13.60;54.40;;;;;;5074530;28;20228;-67
2020/12/16 12:18:25;;;;;;;9.40;8.40;;;13.70;54.50;;;;;;5068687;28;20236;-66
2020/12/16 12:20:52;;;;;;;8.33;7.67;;;13.70;54.50;;;;;;5063394;28;20224;-66
2020/12/16 12:23:18;;;;;;;8.90;7.90;;;13.70;54.60;;;;;;5062698;28;20201;-66
2020/12/16 12:25:46;;;;;;;10.70;9.63;;;13.70;54.60;;;;;;5064405;28;20205;-65
2020/12/16 12:28:12;;;;;;;10.03;9.13;;;13.70;54.60;;;;;;5066889;28;20701;-64
2020/12/16 12:30:39;;;;;;;9.37;8.57;;;13.70;54.60;;;;;;5061314;28;20209;-65
2020/12/16 12:33:06;;;;;;;9.57;8.77;;;13.70;54.70;;;;;;5063750;28;20213;-66
2020/12/16 12:35:32;;;;;;;9.47;8.67;;;13.70;54.70;;;;;;5060811;28;20228;-65
2020/12/16 12:37:59;;;;;;;9.40;8.60;;;13.70;54.70;;;;;;5062769;28;20229;-66
2020/12/16 12:40:25;;;;;;;9.63;8.83;;;13.60;54.60;;;;;;5060708;28;20239;-65
2020/12/16 12:42:53;;;;;;;9.07;8.27;;;13.60;54.70;;;;;;5065664;28;20586;-66
2020/12/16 12:45:19;;;;;;;9.83;8.93;;;13.60;54.70;;;;;;5060799;28;20262;-66
2020/12/16 12:47:45;;;;;;;9.47;8.57;;;13.60;54.80;;;;;;5063634;28;20673;-64
2020/12/16 12:50:12;;;;;;;9.43;8.63;;;13.60;54.80;;;;;;5065900;28;20213;-65
2020/12/16 12:52:38;;;;;;;8.47;7.77;;;13.50;54.70;;;;;;5059990;28;20213;-68
2020/12/16 12:55:05;;;;;;;11.03;8.13;;;13.50;54.70;;;;;;5061622;28;20292;-66
2020/12/16 12:57:32;;;;;;;8.83;8.03;;;13.40;54.60;;;;;;5063910;28;20221;-68
2020/12/16 12:59:59;;;;;;;8.27;7.47;;;13.40;54.80;;;;;;5063482;28;20658;-68
2020/12/16 13:02:30;;;;;;;8.90;8.10;;;13.30;54.80;;;;;;5064618;28;20201;-65